createdAt,value
2023-04-20T00:00:43.020Z,8.68
2023-04-20T00:03:09.622Z,7.18
2023-04-20T00:05:37.505Z,5.70
2023-04-20T00:08:04.148Z,5.82
2023-04-20T00:10:30.694Z,6.63
2023-04-20T00:12:57.095Z,6.05
2023-04-20T00:15:23.516Z,6.22
2023-04-20T00:17:49.940Z,7.55
2023-04-20T00:20:16.545Z,4.53
2023-04-20T00:22:42.976Z,5.88
2023-04-20T00:25:09.728Z,8.27
2023-04-20T00:27:36.172Z,7.95
2023-04-20T00:30:02.662Z,6.72
2023-04-20T00:32:30.307Z,6.60
2023-04-20T00:34:56.789Z,5.78
2023-04-20T00:37:25.521Z,4.35
2023-04-20T00:39:55.625Z,7.50
2023-04-20T00:42:22.209Z,4.50
2023-04-20T00:44:48.590Z,9.63
2023-04-20T00:47:15.016Z,8.15
2023-04-20T00:49:41.732Z,8.75
2023-04-20T00:52:08.791Z,7.68
2023-04-20T00:54:36.234Z,5.10
2023-04-20T00:57:04.570Z,7.30
2023-04-20T00:59:31.153Z,4.80
2023-04-20T01:01:58.534Z,5.18
2023-04-20T01:04:26.315Z,4.47
2023-04-20T01:06:52.810Z,5.43
2023-04-20T01:09:21.248Z,6.47
2023-04-20T01:11:47.821Z,4.80
2023-04-20T01:14:16.171Z,5.93
2023-04-20T01:16:42.576Z,4.90
2023-04-20T01:19:11.829Z,6.47
2023-04-20T01:21:38.361Z,5.20
2023-04-20T01:24:05.512Z,6.53
2023-04-20T01:26:32.334Z,4.13
2023-04-20T01:28:59.022Z,8.20
2023-04-20T01:31:25.584Z,6.18
2023-04-20T01:33:52.120Z,6.72
2023-04-20T01:36:20.625Z,5.78
2023-04-20T01:38:47.502Z,3.83
2023-04-20T01:41:14.082Z,5.82
2023-04-20T01:43:40.928Z,4.65
2023-04-20T01:46:07.511Z,5.40
2023-04-20T01:48:34.564Z,5.88
2023-04-20T01:51:01.128Z,5.50
2023-04-20T01:53:27.838Z,8.13
2023-04-20T01:55:54.274Z,5.43
2023-04-20T01:58:22.652Z,7.20
2023-04-20T02:00:49.256Z,7.88
2023-04-20T02:03:16.403Z,3.45
2023-04-20T02:05:43.187Z,6.10
2023-04-20T02:08:09.619Z,4.32
2023-04-20T02:10:39.083Z,4.43
2023-04-20T02:13:05.500Z,5.90
2023-04-20T02:15:32.386Z,5.07
2023-04-20T02:17:58.860Z,5.63
2023-04-20T02:20:25.487Z,5.60
2023-04-20T02:22:51.899Z,7.38
2023-04-20T02:25:18.414Z,5.28
2023-04-20T02:27:44.978Z,10.02
2023-04-20T02:30:12.365Z,5.55
2023-04-20T02:32:39.192Z,5.00
2023-04-20T02:35:06.044Z,5.10
2023-04-20T02:37:32.613Z,6.20
2023-04-20T02:39:59.150Z,4.57
2023-04-20T02:42:26.953Z,4.90
2023-04-20T02:44:55.699Z,5.70
2023-04-20T02:47:22.648Z,7.45
2023-04-20T02:49:50.703Z,5.72
2023-04-20T02:52:17.959Z,5.97
2023-04-20T02:54:44.814Z,6.35
2023-04-20T02:57:12.587Z,8.20
2023-04-20T02:59:39.222Z,6.35
2023-04-20T03:02:31.790Z,6.10
2023-04-20T03:04:58.452Z,6.03
2023-04-20T03:07:24.904Z,4.65
2023-04-20T03:09:52.446Z,5.13
2023-04-20T03:12:23.509Z,4.90
2023-04-20T03:15:01.382Z,4.32
2023-04-20T03:17:39.933Z,6.57
2023-04-20T03:20:07.531Z,11.20
2023-04-20T03:22:34.016Z,4.20
2023-04-20T03:25:01.822Z,5.35
2023-04-20T03:27:46.766Z,7.78
2023-04-20T03:30:14.800Z,6.60
2023-04-20T03:32:42.544Z,6.65
2023-04-20T03:35:09.621Z,8.52
2023-04-20T03:37:37.560Z,7.80
2023-04-20T03:40:07.163Z,6.57
2023-04-20T03:42:33.636Z,6.75
2023-04-20T03:45:00.154Z,6.95
2023-04-20T03:47:26.670Z,5.32
2023-04-20T03:49:53.100Z,9.38
2023-04-20T03:52:19.545Z,9.25
2023-04-20T03:54:46.254Z,7.03
2023-04-20T03:57:15.401Z,7.10
2023-04-20T03:59:42.714Z,6.95
2023-04-20T04:02:13.300Z,7.63
2023-04-20T04:04:42.148Z,10.75
2023-04-20T04:07:08.904Z,8.95
2023-04-20T04:09:39.793Z,7.38
2023-04-20T04:12:07.567Z,7.28
2023-04-20T04:14:35.124Z,5.45
2023-04-20T04:17:02.019Z,6.63
2023-04-20T04:19:31.914Z,8.75
2023-04-20T04:21:59.632Z,8.35
2023-04-20T04:24:26.691Z,6.10
2023-04-20T04:27:05.112Z,12.38
2023-04-20T04:29:35.875Z,7.28
2023-04-20T04:32:05.534Z,6.93
2023-04-20T04:34:33.687Z,7.78
2023-04-20T04:37:01.819Z,7.88
2023-04-20T04:39:41.176Z,7.65
2023-04-20T04:42:14.737Z,6.03
2023-04-20T04:44:43.487Z,7.75
2023-04-20T04:47:14.154Z,5.95
2023-04-20T04:49:41.113Z,9.65
2023-04-20T04:52:08.574Z,6.18
2023-04-20T04:54:35.534Z,6.70
2023-04-20T04:57:02.806Z,5.63
2023-04-20T04:59:29.211Z,8.13
2023-04-20T05:01:55.838Z,7.72
2023-04-20T05:04:22.553Z,8.02
2023-04-20T05:06:49.053Z,8.18
2023-04-20T05:09:16.254Z,7.05
2023-04-20T05:11:43.228Z,6.55
2023-04-20T05:14:09.709Z,7.63
2023-04-20T05:16:36.267Z,5.88
2023-04-20T05:19:02.656Z,8.45
2023-04-20T05:21:29.038Z,6.53
2023-04-20T05:23:55.493Z,7.10
2023-04-20T05:26:21.942Z,8.48
2023-04-20T05:28:48.321Z,8.70
2023-04-20T05:31:14.869Z,7.95
2023-04-20T05:33:41.256Z,5.85
2023-04-20T05:36:10.839Z,8.65
2023-04-20T05:38:37.784Z,6.80
2023-04-20T05:41:04.838Z,6.55
2023-04-20T05:43:31.577Z,7.68
2023-04-20T05:45:58.425Z,9.50
2023-04-20T05:48:29.590Z,10.35
2023-04-20T05:50:56.616Z,10.55
2023-04-20T05:53:23.090Z,7.40
2023-04-20T05:55:49.589Z,10.20
2023-04-20T05:58:16.960Z,8.43
2023-04-20T06:00:44.292Z,7.65
2023-04-20T06:03:10.893Z,9.88
2023-04-20T06:05:37.930Z,5.47
2023-04-20T06:08:04.621Z,4.93
2023-04-20T06:10:32.472Z,7.88
2023-04-20T06:12:58.971Z,7.25
2023-04-20T06:15:25.524Z,8.32
2023-04-20T06:17:52.413Z,6.85
2023-04-20T06:20:20.249Z,6.90
2023-04-20T06:22:47.014Z,9.27
2023-04-20T06:25:13.864Z,7.00
2023-04-20T06:27:40.709Z,12.13
2023-04-20T06:30:07.710Z,7.57
2023-04-20T06:32:34.136Z,7.68
2023-04-20T06:35:00.613Z,9.52
2023-04-20T06:37:27.794Z,11.77
2023-04-20T06:39:57.366Z,7.60
2023-04-20T06:42:23.778Z,10.27
2023-04-20T06:44:50.704Z,9.50
2023-04-20T06:47:17.093Z,8.43
2023-04-20T06:49:43.468Z,14.13
2023-04-20T06:52:10.085Z,10.05
2023-04-20T06:54:36.531Z,10.60
2023-04-20T06:57:04.423Z,9.57
2023-04-20T06:59:30.816Z,12.45
2023-04-20T07:01:57.261Z,12.00
2023-04-20T07:04:23.765Z,9.48
2023-04-20T07:06:53.393Z,8.27
2023-04-20T07:09:22.840Z,9.05
2023-04-20T07:11:49.268Z,11.88
2023-04-20T07:14:15.853Z,6.45
2023-04-20T07:16:42.474Z,6.05
2023-04-20T07:19:08.987Z,11.85
2023-04-20T07:21:36.029Z,8.00
2023-04-20T07:24:02.567Z,9.65
2023-04-20T07:26:29.009Z,9.02
2023-04-20T07:28:55.458Z,9.65
2023-04-20T07:31:22.171Z,9.70
2023-04-20T07:33:49.328Z,10.65
2023-04-20T07:36:15.977Z,10.00
2023-04-20T07:38:42.362Z,10.52
2023-04-20T07:41:10.738Z,9.88
2023-04-20T07:43:38.852Z,9.73
2023-04-20T07:46:05.619Z,9.90
2023-04-20T07:48:33.855Z,9.30
2023-04-20T07:51:00.517Z,8.55
2023-04-20T07:53:27.837Z,10.65
2023-04-20T07:55:54.220Z,7.70
2023-04-20T07:58:21.571Z,11.98
2023-04-20T08:00:48.375Z,9.80
2023-04-20T08:03:15.585Z,10.98
2023-04-20T08:05:42.354Z,10.13
2023-04-20T08:08:08.869Z,8.57
2023-04-20T08:10:35.810Z,8.50
2023-04-20T08:13:02.269Z,8.88
2023-04-20T08:15:29.195Z,7.13
2023-04-20T08:17:56.413Z,8.68
2023-04-20T08:20:22.955Z,9.50
2023-04-20T08:22:50.545Z,7.47
2023-04-20T08:25:17.058Z,7.97
2023-04-20T08:27:43.445Z,5.97
2023-04-20T08:30:10.448Z,6.10
2023-04-20T08:32:36.957Z,6.80
2023-04-20T08:35:04.931Z,6.13
2023-04-20T08:37:32.937Z,5.65
2023-04-20T08:39:59.759Z,6.60
2023-04-20T08:42:26.181Z,6.32
2023-04-20T08:44:52.833Z,6.78
2023-04-20T08:47:21.401Z,6.20
2023-04-20T08:49:51.812Z,5.45
2023-04-20T08:52:18.286Z,7.40
2023-04-20T08:57:14.431Z,5.32
2023-04-20T08:59:40.881Z,7.00
2023-04-20T09:02:11.893Z,6.07
2023-04-20T09:04:39.548Z,5.60
2023-04-20T09:07:07.504Z,9.63
2023-04-20T09:09:33.966Z,7.50
2023-04-20T09:12:10.240Z,6.47
2023-04-20T09:14:44.063Z,6.07
2023-04-20T09:17:14.116Z,8.45
2023-04-20T09:19:43.276Z,6.47
2023-04-20T09:22:09.719Z,8.05
2023-04-20T09:24:38.420Z,8.27
2023-04-20T09:27:18.218Z,6.53
2023-04-20T09:29:57.918Z,7.28
2023-04-20T09:32:25.589Z,7.68
2023-04-20T09:34:52.056Z,8.32
2023-04-20T09:37:18.647Z,7.85
2023-04-20T09:39:46.248Z,9.30
2023-04-20T09:42:14.286Z,10.27
2023-04-20T09:44:41.070Z,9.95
2023-04-20T09:47:09.547Z,8.63
2023-04-20T09:49:41.646Z,8.35
2023-04-20T09:52:08.375Z,7.50
2023-04-20T09:54:37.185Z,10.10
2023-04-20T09:57:04.620Z,9.82
2023-04-20T09:59:33.360Z,10.73
2023-04-20T10:01:59.915Z,9.75
2023-04-20T10:04:26.839Z,11.65
2023-04-20T10:06:55.316Z,11.45
2023-04-20T10:09:24.654Z,12.88
2023-04-20T10:11:54.024Z,12.50
2023-04-20T10:14:26.005Z,12.73
2023-04-20T10:17:01.050Z,16.33
2023-04-20T10:19:44.608Z,11.50
2023-04-20T10:22:14.222Z,14.30
2023-04-20T10:24:40.719Z,13.60
2023-04-20T10:27:21.688Z,13.52
2023-04-20T10:29:48.428Z,14.27
2023-04-20T10:32:24.590Z,11.32
2023-04-20T10:35:10.098Z,12.88
2023-04-20T10:37:47.648Z,10.07
2023-04-20T10:40:14.101Z,9.73
2023-04-20T10:42:42.477Z,10.07
2023-04-20T10:45:10.707Z,9.23
2023-04-20T10:47:45.023Z,7.32
2023-04-20T10:50:14.215Z,12.57
2023-04-20T10:52:42.647Z,9.32
2023-04-20T10:55:23.540Z,8.13
2023-04-20T10:57:51.050Z,7.13
2023-04-20T11:00:20.254Z,5.68
2023-04-20T11:02:51.655Z,4.35
2023-04-20T11:05:19.288Z,5.30
2023-04-20T11:07:57.054Z,5.30
2023-04-20T11:10:42.629Z,4.40
2023-04-20T11:13:23.271Z,4.32
2023-04-20T11:15:49.704Z,5.13
2023-04-20T11:18:16.483Z,4.85
2023-04-20T11:20:56.180Z,5.15
2023-04-20T11:23:24.556Z,4.30
2023-04-20T11:25:55.590Z,3.33
2023-04-20T11:28:22.124Z,5.65
2023-04-20T11:30:50.684Z,3.97
2023-04-20T11:33:30.042Z,3.72
2023-04-20T11:35:58.335Z,4.80
2023-04-20T11:38:28.639Z,4.80
2023-04-20T11:40:55.803Z,5.63
2023-04-20T11:43:22.222Z,4.60
2023-04-20T11:45:49.174Z,3.25
2023-04-20T11:48:16.040Z,3.72
2023-04-20T11:50:43.176Z,4.07
2023-04-20T11:53:14.528Z,4.53
2023-04-20T11:55:41.776Z,4.07
2023-04-20T11:58:08.609Z,3.28
2023-04-20T12:00:35.135Z,3.97
2023-04-20T12:03:02.322Z,3.38
2023-04-20T12:05:29.343Z,4.85
2023-04-20T12:07:56.205Z,3.60
2023-04-20T12:10:22.965Z,3.85
2023-04-20T12:12:49.435Z,3.92
2023-04-20T12:15:15.836Z,4.35
2023-04-20T12:17:42.253Z,3.42
2023-04-20T12:21:46.574Z,5.82
2023-04-20T12:24:13.221Z,2.92
2023-04-20T12:26:39.675Z,3.53
2023-04-20T12:29:07.103Z,3.65
2023-04-20T12:31:34.093Z,4.70
2023-04-20T12:34:00.564Z,3.30
2023-04-20T12:36:27.938Z,2.60
2023-04-20T12:38:55.850Z,3.83
2023-04-20T12:41:23.334Z,3.58
2023-04-20T12:43:52.932Z,3.03
2023-04-20T12:46:19.538Z,3.45
2023-04-20T12:48:46.108Z,2.65
2023-04-20T12:51:13.454Z,3.20
2023-04-20T12:53:40.115Z,3.03
2023-04-20T12:56:06.948Z,4.05
2023-04-20T12:58:33.372Z,5.18
2023-04-20T13:00:59.822Z,3.20
2023-04-20T13:07:18.666Z,4.47
2023-04-20T13:09:45.513Z,3.30
2023-04-20T13:12:12.782Z,3.65
2023-04-20T13:14:39.237Z,3.80
2023-04-20T13:17:06.822Z,4.05
2023-04-20T13:19:33.294Z,4.78
2023-04-20T13:21:59.669Z,5.38
2023-04-20T13:24:26.172Z,3.42
2023-04-20T13:26:56.579Z,4.88
2023-04-20T13:29:24.578Z,5.10
2023-04-20T13:31:51.110Z,5.95
2023-04-20T13:34:18.486Z,4.30
2023-04-20T13:36:45.709Z,7.45
2023-04-20T13:39:12.539Z,3.83
2023-04-20T13:41:38.972Z,5.00
2023-04-20T13:44:07.702Z,5.10
2023-04-20T13:46:34.275Z,4.85
2023-04-20T13:49:00.812Z,6.18
2023-04-20T13:51:28.031Z,7.13
2023-04-20T13:53:54.475Z,4.20
2023-04-20T13:56:20.925Z,6.88
2023-04-20T13:58:47.432Z,5.68
2023-04-20T14:01:17.392Z,5.55
2023-04-20T14:03:44.154Z,5.40
2023-04-20T14:06:10.741Z,5.82
2023-04-20T14:08:37.165Z,7.28
2023-04-20T14:11:03.550Z,8.70
2023-04-20T14:13:30.330Z,5.72
2023-04-20T14:15:57.061Z,6.32
2023-04-20T14:18:23.753Z,6.57
2023-04-20T14:20:52.273Z,7.65
2023-04-20T14:23:19.220Z,7.10
2023-04-20T14:25:45.955Z,6.22
2023-04-20T14:28:16.668Z,7.57
2023-04-20T14:30:44.774Z,4.53
2023-04-20T14:33:11.408Z,5.50
2023-04-20T14:35:38.187Z,6.05
2023-04-20T14:38:05.120Z,4.85
2023-04-20T14:40:32.000Z,5.25
2023-04-20T14:42:58.362Z,5.10
2023-04-20T14:45:24.829Z,5.88
2023-04-20T14:47:55.485Z,4.70
2023-04-20T14:50:24.038Z,5.22
2023-04-20T14:52:52.312Z,6.18
2023-04-20T14:55:23.833Z,4.97
2023-04-20T14:57:57.365Z,5.38
2023-04-20T15:00:25.552Z,5.85
2023-04-20T15:02:53.425Z,5.18
2023-04-20T15:05:20.229Z,6.07
2023-04-20T15:07:50.470Z,5.07
2023-04-20T15:10:18.613Z,7.00
2023-04-20T15:12:45.911Z,5.90
2023-04-20T15:15:12.327Z,4.47
2023-04-20T15:17:38.938Z,5.82
2023-04-20T15:20:07.501Z,6.13
2023-04-20T15:22:34.038Z,6.05
2023-04-20T15:25:00.542Z,5.60
2023-04-20T15:27:26.900Z,6.93
2023-04-20T15:29:53.296Z,6.82
2023-04-20T15:32:19.691Z,5.85
2023-04-20T15:34:46.230Z,6.30
2023-04-20T15:37:12.694Z,6.60
2023-04-20T15:39:39.131Z,9.05
2023-04-20T15:42:05.640Z,9.48
2023-04-20T15:44:32.290Z,7.85
2023-04-20T15:46:58.867Z,5.85
2023-04-20T15:49:25.381Z,6.30
2023-04-20T15:51:51.771Z,5.10
2023-04-20T15:54:23.425Z,5.72
2023-04-20T15:56:50.972Z,6.50
2023-04-20T15:59:18.560Z,4.65
2023-04-20T16:01:45.163Z,4.90
2023-04-20T16:04:13.470Z,5.40
2023-04-20T16:06:40.953Z,6.57
2023-04-20T16:09:07.501Z,5.43
2023-04-20T16:11:34.814Z,7.10
2023-04-20T16:14:01.357Z,4.85
2023-04-20T16:16:27.841Z,5.47
2023-04-20T16:18:55.106Z,6.90
2023-04-20T16:21:24.646Z,5.70
2023-04-20T16:23:53.208Z,4.88
2023-04-20T16:26:20.845Z,5.18
2023-04-20T16:28:47.420Z,6.25
2023-04-20T16:31:14.065Z,6.28
2023-04-20T16:33:40.955Z,6.60
2023-04-20T16:36:07.646Z,5.53
2023-04-20T16:38:34.066Z,4.55
2023-04-20T16:41:00.535Z,4.05
2023-04-20T16:43:27.124Z,4.45
2023-04-20T16:45:54.114Z,3.97
2023-04-20T16:48:20.989Z,6.60
2023-04-20T16:50:47.443Z,7.07
2023-04-20T16:53:13.932Z,7.97
2023-04-20T16:55:40.385Z,6.78
2023-04-20T16:58:06.853Z,7.88
2023-04-20T17:00:34.064Z,6.60
2023-04-20T17:03:01.254Z,7.03
2023-04-20T17:05:27.954Z,5.82
2023-04-20T17:07:54.476Z,6.40
2023-04-20T17:10:21.300Z,7.28
2023-04-20T17:12:47.749Z,5.05
2023-04-20T17:15:14.513Z,6.45
2023-04-20T17:17:41.097Z,6.10
2023-04-20T17:20:08.485Z,5.28
2023-04-20T17:22:35.460Z,5.97
2023-04-20T17:25:02.006Z,6.53
2023-04-20T17:27:28.382Z,4.82
2023-04-20T17:29:56.031Z,4.75
2023-04-20T17:32:22.734Z,4.95
2023-04-20T17:34:51.279Z,4.68
2023-04-20T17:37:18.042Z,3.72
2023-04-20T17:39:44.617Z,4.53
2023-04-20T17:42:12.640Z,6.65
2023-04-20T17:44:39.470Z,4.70
2023-04-20T17:47:06.716Z,4.53
2023-04-20T17:49:34.900Z,3.90
2023-04-20T17:52:01.496Z,4.88
2023-04-20T17:54:28.673Z,6.30
2023-04-20T17:56:56.040Z,6.35
2023-04-20T17:59:23.772Z,5.53
2023-04-20T18:01:50.488Z,6.43
2023-04-20T18:04:17.288Z,10.52
2023-04-20T18:06:44.277Z,5.32
2023-04-20T18:09:12.766Z,6.13
2023-04-20T18:11:39.177Z,4.25
2023-04-20T18:14:05.635Z,8.48
2023-04-20T18:16:32.135Z,5.70
2023-04-20T18:18:58.549Z,6.05
2023-04-20T18:21:25.472Z,4.88
2023-04-20T18:23:51.951Z,6.18
2023-04-20T18:26:20.250Z,6.25
2023-04-20T18:28:47.244Z,5.13
2023-04-20T18:31:13.790Z,7.10
2023-04-20T18:33:40.221Z,4.05
2023-04-20T18:36:06.884Z,4.78
2023-04-20T18:38:35.044Z,6.03
2023-04-20T18:41:02.006Z,4.95
2023-04-20T18:43:28.387Z,5.03
2023-04-20T18:45:55.132Z,4.93
2023-04-20T18:48:21.486Z,6.40
2023-04-20T18:50:48.206Z,4.80
2023-04-20T18:53:14.805Z,7.53
2023-04-20T18:55:41.590Z,7.20
2023-04-20T18:58:08.099Z,7.75
2023-04-20T19:00:34.589Z,5.78
2023-04-20T19:03:01.085Z,5.88
2023-04-20T19:05:27.665Z,7.18
2023-04-20T19:07:54.294Z,7.88
2023-04-20T19:10:20.776Z,7.32
2023-04-20T19:12:47.394Z,7.63
2023-04-20T19:15:13.999Z,6.70
2023-04-20T19:17:41.757Z,6.70
2023-04-20T19:20:08.793Z,7.50
2023-04-20T19:22:35.362Z,8.77
2023-04-20T19:25:02.252Z,6.68
2023-04-20T19:27:28.682Z,7.60
2023-04-20T19:29:55.164Z,7.03
2023-04-20T19:32:21.617Z,7.60
2023-04-20T19:34:48.122Z,8.20
2023-04-20T19:37:14.836Z,7.43
2023-04-20T19:39:41.271Z,6.80
2023-04-20T19:42:07.750Z,6.25
2023-04-20T19:44:35.994Z,7.13
2023-04-20T19:47:03.117Z,7.10
2023-04-20T19:49:29.618Z,7.72
2023-04-20T19:51:56.588Z,7.00
2023-04-20T19:54:23.047Z,7.32
2023-04-20T19:56:49.466Z,6.93
2023-04-20T19:59:16.589Z,8.38
2023-04-20T20:01:43.237Z,6.82
2023-04-20T20:04:10.001Z,7.65
2023-04-20T20:06:36.801Z,7.68
2023-04-20T20:09:05.480Z,8.75
2023-04-20T20:11:33.172Z,8.82
2023-04-20T20:13:59.848Z,9.23
2023-04-20T20:16:29.076Z,9.07
2023-04-20T20:18:55.571Z,10.45
2023-04-20T20:21:22.146Z,9.43
2023-04-20T20:23:48.972Z,10.73
2023-04-20T20:26:15.364Z,9.40
2023-04-20T20:28:41.795Z,9.82
2023-04-20T20:31:08.272Z,9.82
2023-04-20T20:33:34.756Z,9.13
2023-04-20T20:36:02.655Z,10.13
2023-04-20T20:38:30.844Z,11.55
2023-04-20T20:40:58.573Z,10.10
2023-04-20T20:43:25.269Z,10.18
2023-04-20T20:45:52.260Z,12.93
2023-04-20T20:48:18.647Z,14.48
2023-04-20T20:50:45.256Z,14.88
2023-04-20T20:53:12.101Z,12.57
2023-04-20T20:55:38.706Z,12.95
2023-04-20T20:58:05.080Z,13.02
2023-04-20T21:00:33.209Z,16.30
2023-04-20T21:02:59.865Z,13.93
2023-04-20T21:05:26.409Z,13.73
2023-04-20T21:07:53.042Z,16.20
2023-04-20T21:10:19.881Z,14.95
2023-04-20T21:12:46.258Z,16.45
2023-04-20T21:15:12.819Z,17.27
2023-04-20T21:17:39.503Z,18.42
2023-04-20T21:20:09.024Z,17.70
2023-04-20T21:22:35.432Z,19.23
2023-04-20T21:25:01.865Z,16.98
2023-04-20T21:27:28.353Z,19.40
2023-04-20T21:29:55.031Z,18.88
2023-04-20T21:32:21.599Z,20.67
2023-04-20T21:34:48.101Z,21.80
2023-04-20T21:37:14.703Z,21.35
2023-04-20T21:39:41.073Z,23.80
2023-04-20T21:42:07.667Z,20.98
2023-04-20T21:44:34.380Z,24.15
2023-04-20T21:47:02.424Z,24.27
2023-04-20T21:49:29.531Z,24.95
2023-04-20T21:51:55.998Z,24.73
2023-04-20T21:54:22.395Z,26.27
2023-04-20T21:56:48.832Z,27.10
2023-04-20T21:59:15.294Z,26.20
2023-04-20T22:01:41.766Z,27.05
2023-04-20T22:04:10.380Z,27.85
2023-04-20T22:06:37.136Z,28.52
2023-04-20T22:09:04.692Z,26.73
2023-04-20T22:11:31.168Z,28.38
2023-04-20T22:13:57.598Z,28.55
2023-04-20T22:16:24.249Z,26.92
2023-04-20T22:18:50.956Z,28.52
2023-04-20T22:21:17.468Z,27.73
2023-04-20T22:23:43.893Z,30.20
2023-04-20T22:26:10.341Z,28.75
2023-04-20T22:28:36.784Z,28.05
2023-04-20T22:31:03.437Z,30.63
2023-04-20T22:33:30.065Z,29.65
2023-04-20T22:35:56.422Z,29.05
2023-04-20T22:38:23.277Z,31.85
2023-04-20T22:40:49.646Z,30.02
2023-04-20T22:43:16.148Z,32.80
2023-04-20T22:45:42.617Z,30.70
2023-04-20T22:48:09.266Z,32.40
2023-04-20T22:50:35.772Z,30.45
2023-04-20T22:53:02.858Z,33.55
2023-04-20T22:55:29.287Z,29.13
2023-04-20T22:57:55.758Z,35.20
2023-04-20T23:00:22.185Z,33.47
2023-04-20T23:02:49.274Z,29.75
2023-04-20T23:05:20.034Z,33.25
2023-04-20T23:07:46.571Z,30.40
2023-04-20T23:10:16.074Z,28.95
2023-04-20T23:12:44.446Z,30.63
2023-04-20T23:15:11.861Z,28.90
2023-04-20T23:17:38.554Z,29.10
2023-04-20T23:20:10.165Z,26.98
2023-04-20T23:22:37.091Z,32.50
2023-04-20T23:25:04.084Z,29.27
2023-04-20T23:27:30.531Z,30.75
2023-04-20T23:29:56.914Z,28.25
2023-04-20T23:32:23.577Z,28.55
2023-04-20T23:34:49.996Z,30.95
2023-04-20T23:37:16.342Z,31.65
2023-04-20T23:39:42.716Z,32.85
2023-04-20T23:42:09.552Z,32.38
2023-04-20T23:44:36.593Z,33.60
2023-04-20T23:47:03.055Z,31.85
2023-04-20T23:49:29.485Z,33.05
2023-04-20T23:51:55.918Z,33.47
2023-04-20T23:54:22.316Z,32.28
2023-04-20T23:56:48.746Z,30.88
2023-04-20T23:59:15.133Z,31.80
